EZY897 EGCC-EIDW
Flight info
| Callsign | EZY897 |
|---|---|
| Flight time | 0h 48m |
| Altitude | 28000 |
| Route | EKLAD Y53 WAL L10 PENIL M144 BAGSO BAGSO4L |
| Aircraft | A319/M-SDE3FGHIRWY/LB1 |
Departure
| Time | 2026-05-04 15:48 |
|---|---|
| Airport | Manchester Airport (EGCC) |
Arrival
| Time | 2026-05-04 16:37 |
|---|---|
| Airport | Dublin Airport (EIDW) |
| Time | Latitude | Longitude | Altitude | Speed | Heading |
|---|---|---|---|---|---|
| 2026-05-04 15:12 | 53.36077 | -2.27507 | 255 ft | 0 kts | 96° |
| 2026-05-04 15:34 | 53.36079 | -2.27539 | 255 ft | 4 kts | 96° |
| 2026-05-04 15:34 | 53.36081 | -2.27584 | 255 ft | 4 kts | 96° |
| 2026-05-04 15:34 | 53.36085 | -2.27656 | 255 ft | 0 kts | 96° |
| 2026-05-04 15:39 | 53.36077 | -2.27639 | 255 ft | 4 kts | 134° |
| 2026-05-04 15:39 | 53.36044 | -2.27626 | 255 ft | 8 kts | 179° |
| 2026-05-04 15:39 | 53.35889 | -2.27650 | 255 ft | 14 kts | 188° |
| 2026-05-04 15:40 | 53.35792 | -2.27665 | 256 ft | 15 kts | 185° |
| 2026-05-04 15:40 | 53.35716 | -2.27636 | 252 ft | 3 kts | 158° |
| 2026-05-04 15:40 | 53.35674 | -2.27603 | 256 ft | 12 kts | 152° |
| 2026-05-04 15:40 | 53.35628 | -2.27540 | 256 ft | 1 kts | 139° |
| 2026-05-04 15:41 | 53.35598 | -2.27497 | 256 ft | 11 kts | 139° |
| 2026-05-04 15:41 | 53.35574 | -2.27463 | 256 ft | 0 kts | 139° |
| 2026-05-04 15:44 | 53.35564 | -2.27449 | 256 ft | 9 kts | 140° |
| 2026-05-04 15:44 | 53.35529 | -2.27404 | 250 ft | 17 kts | 144° |
| 2026-05-04 15:44 | 53.35438 | -2.27282 | 252 ft | 18 kts | 140° |
| 2026-05-04 15:44 | 53.35320 | -2.27194 | 248 ft | 20 kts | 182° |
| 2026-05-04 15:45 | 53.35256 | -2.27212 | 246 ft | 4 kts | 194° |
| 2026-05-04 15:45 | 53.35163 | -2.27248 | 245 ft | 20 kts | 192° |
| 2026-05-04 15:45 | 53.35000 | -2.27340 | 241 ft | 27 kts | 224° |
| 2026-05-04 15:45 | 53.34893 | -2.27561 | 236 ft | 18 kts | 231° |
| 2026-05-04 15:46 | 53.34811 | -2.27732 | 234 ft | 13 kts | 230° |
| 2026-05-04 15:46 | 53.34805 | -2.27744 | 236 ft | 0 kts | 230° |
| 2026-05-04 15:47 | 53.34791 | -2.27772 | 234 ft | 18 kts | 231° |
| 2026-05-04 15:47 | 53.34467 | -2.28443 | 225 ft | 126 kts | 231° |
| 2026-05-04 15:47 | 53.33764 | -2.29892 | 206 ft | 161 kts | 231° |
| 2026-05-04 15:48 | 53.33109 | -2.31241 | 310 ft | 144 kts | 231° |
| 2026-05-04 15:48 | 53.32212 | -2.31805 | 935 ft | 149 kts | 163° |
| 2026-05-04 15:48 | 53.30032 | -2.30701 | 2667 ft | 186 kts | 181° |
| 2026-05-04 15:49 | 53.28650 | -2.31234 | 3194 ft | 224 kts | 195° |
| 2026-05-04 15:49 | 53.27051 | -2.32135 | 3651 ft | 255 kts | 204° |
| 2026-05-04 15:49 | 53.25479 | -2.33597 | 4151 ft | 263 kts | 213° |
| 2026-05-04 15:49 | 53.23874 | -2.35105 | 4035 ft | 264 kts | 206° |
| 2026-05-04 15:50 | 53.22192 | -2.36324 | 4024 ft | 263 kts | 202° |
| 2026-05-04 15:50 | 53.20460 | -2.37316 | 4018 ft | 264 kts | 197° |
| 2026-05-04 15:50 | 53.18681 | -2.38080 | 4062 ft | 264 kts | 193° |
| 2026-05-04 15:50 | 53.16995 | -2.39214 | 4079 ft | 264 kts | 218° |
| 2026-05-04 15:51 | 53.15972 | -2.41668 | 4030 ft | 261 kts | 255° |
| 2026-05-04 15:51 | 53.15837 | -2.44667 | 4025 ft | 260 kts | 270° |
| 2026-05-04 15:51 | 53.15422 | -2.47577 | 4022 ft | 263 kts | 240° |
| 2026-05-04 15:51 | 53.14083 | -2.49589 | 4079 ft | 261 kts | 211° |
| 2026-05-04 15:52 | 53.12774 | -2.51507 | 5157 ft | 260 kts | 238° |
| 2026-05-04 15:52 | 53.12126 | -2.54420 | 5796 ft | 266 kts | 262° |
| 2026-05-04 15:52 | 53.12175 | -2.57502 | 6491 ft | 270 kts | 279° |
| 2026-05-04 15:52 | 53.12595 | -2.60526 | 6544 ft | 269 kts | 287° |
| 2026-05-04 15:53 | 53.13240 | -2.63454 | 6674 ft | 270 kts | 294° |
| 2026-05-04 15:53 | 53.14110 | -2.66228 | 6806 ft | 270 kts | 301° |
| 2026-05-04 15:53 | 53.15188 | -2.68794 | 6939 ft | 271 kts | 309° |
| 2026-05-04 15:53 | 53.16460 | -2.71120 | 7082 ft | 272 kts | 316° |
| 2026-05-04 15:54 | 53.17874 | -2.73215 | 7217 ft | 272 kts | 319° |
| 2026-05-04 15:54 | 53.19319 | -2.75271 | 7399 ft | 273 kts | 320° |
| 2026-05-04 15:54 | 53.20776 | -2.77312 | 7585 ft | 274 kts | 320° |
| 2026-05-04 15:54 | 53.22240 | -2.79330 | 7806 ft | 275 kts | 320° |
| 2026-05-04 15:55 | 53.23632 | -2.81527 | 7857 ft | 275 kts | 304° |
| 2026-05-04 15:55 | 53.24605 | -2.84289 | 7700 ft | 274 kts | 303° |
| 2026-05-04 15:55 | 53.25717 | -2.86862 | 7819 ft | 274 kts | 301° |
| 2026-05-04 15:55 | 53.26394 | -2.89838 | 7858 ft | 276 kts | 286° |
| 2026-05-04 15:56 | 53.26902 | -2.92918 | 8031 ft | 274 kts | 285° |
| 2026-05-04 15:56 | 53.27431 | -2.96207 | 8554 ft | 308 kts | 285° |
| 2026-05-04 15:56 | 53.27990 | -2.99687 | 9076 ft | 318 kts | 285° |
| 2026-05-04 15:56 | 53.28569 | -3.03286 | 9578 ft | 322 kts | 285° |
| 2026-05-04 15:57 | 53.29154 | -3.06924 | 9942 ft | 326 kts | 285° |
| 2026-05-04 15:57 | 53.29740 | -3.10580 | 10188 ft | 325 kts | 285° |
| 2026-05-04 15:57 | 53.30333 | -3.14273 | 10635 ft | 335 kts | 285° |
| 2026-05-04 15:57 | 53.30947 | -3.18081 | 11087 ft | 342 kts | 285° |
| 2026-05-04 15:58 | 53.31572 | -3.21937 | 11537 ft | 345 kts | 285° |
| 2026-05-04 15:58 | 53.32207 | -3.25823 | 11991 ft | 347 kts | 285° |
| 2026-05-04 15:58 | 53.32849 | -3.29739 | 12459 ft | 350 kts | 285° |
| 2026-05-04 15:58 | 53.33495 | -3.33689 | 12893 ft | 360 kts | 285° |
| 2026-05-04 15:59 | 53.33941 | -3.36419 | 12983 ft | 372 kts | 285° |
| 2026-05-04 15:59 | 53.34630 | -3.40627 | 13025 ft | 377 kts | 285° |
| 2026-05-04 15:59 | 53.35324 | -3.44862 | 13018 ft | 377 kts | 285° |
| 2026-05-04 15:59 | 53.36016 | -3.49097 | 13020 ft | 378 kts | 285° |
| 2026-05-04 16:00 | 53.36708 | -3.53342 | 13020 ft | 378 kts | 285° |
| 2026-05-04 16:00 | 53.37398 | -3.57587 | 13014 ft | 378 kts | 285° |
| 2026-05-04 16:00 | 53.38086 | -3.61830 | 13028 ft | 378 kts | 285° |
| 2026-05-04 16:00 | 53.38946 | -3.65989 | 13014 ft | 379 kts | 297° |
| 2026-05-04 16:01 | 53.40511 | -3.69530 | 13024 ft | 380 kts | 315° |
| 2026-05-04 16:01 | 53.42626 | -3.72163 | 13236 ft | 380 kts | 327° |
| 2026-05-04 16:01 | 53.44851 | -3.74581 | 13907 ft | 384 kts | 326° |
| 2026-05-04 16:01 | 53.47113 | -3.77066 | 14535 ft | 395 kts | 326° |
| 2026-05-04 16:02 | 53.49436 | -3.79640 | 15172 ft | 403 kts | 326° |
| 2026-05-04 16:02 | 53.51789 | -3.82257 | 15823 ft | 408 kts | 326° |
| 2026-05-04 16:02 | 53.56530 | -3.87550 | 17169 ft | 415 kts | 326° |
| 2026-05-04 16:03 | 53.58857 | -3.90457 | 17862 ft | 420 kts | 318° |
| 2026-05-04 16:03 | 53.60801 | -3.94171 | 18544 ft | 425 kts | 305° |
| 2026-05-04 16:03 | 53.62241 | -3.98537 | 18910 ft | 430 kts | 293° |
| 2026-05-04 16:03 | 53.63064 | -4.03382 | 19282 ft | 432 kts | 279° |
| 2026-05-04 16:04 | 53.63285 | -4.08411 | 20158 ft | 432 kts | 273° |
| 2026-05-04 16:04 | 53.63659 | -4.18588 | 21674 ft | 438 kts | 275° |
| 2026-05-04 16:04 | 53.63872 | -4.23778 | 21977 ft | 451 kts | 275° |
| 2026-05-04 16:05 | 53.64089 | -4.29084 | 22024 ft | 456 kts | 275° |
| 2026-05-04 16:05 | 53.64300 | -4.34422 | 22023 ft | 457 kts | 275° |
| 2026-05-04 16:05 | 53.64701 | -4.45181 | 22022 ft | 466 kts | 274° |
| 2026-05-04 16:06 | 53.64897 | -4.50603 | 22021 ft | 461 kts | 274° |
| 2026-05-04 16:06 | 53.65453 | -4.66644 | 22024 ft | 458 kts | 274° |
| 2026-05-04 16:07 | 53.65633 | -4.72082 | 22025 ft | 458 kts | 274° |
| 2026-05-04 16:07 | 53.66149 | -4.88112 | 22025 ft | 458 kts | 274° |
| 2026-05-04 16:08 | 53.66326 | -4.93474 | 22029 ft | 458 kts | 274° |
| 2026-05-04 16:08 | 53.66844 | -5.09585 | 22029 ft | 458 kts | 274° |
| 2026-05-04 16:09 | 53.67156 | -5.20009 | 22007 ft | 427 kts | 274° |
| 2026-05-04 16:09 | 53.67440 | -5.29864 | 20762 ft | 418 kts | 274° |
| 2026-05-04 16:10 | 53.67717 | -5.39660 | 18749 ft | 418 kts | 273° |
| 2026-05-04 16:11 | 53.68113 | -5.54181 | 15562 ft | 403 kts | 273° |
| 2026-05-04 16:11 | 53.68237 | -5.58873 | 14550 ft | 397 kts | 273° |
| 2026-05-04 16:12 | 53.66230 | -5.71346 | 11655 ft | 355 kts | 232° |
| 2026-05-04 16:12 | 53.59989 | -5.73711 | 9018 ft | 323 kts | 149° |
| 2026-05-04 16:13 | 53.57435 | -5.67779 | 8086 ft | 318 kts | 115° |
| 2026-05-04 16:13 | 53.55006 | -5.61654 | 8033 ft | 318 kts | 140° |
| 2026-05-04 16:14 | 53.51284 | -5.57684 | 8031 ft | 317 kts | 150° |
| 2026-05-04 16:14 | 53.47261 | -5.54879 | 8032 ft | 315 kts | 171° |
| 2026-05-04 16:15 | 53.40771 | -5.53099 | 8030 ft | 315 kts | 173° |
| 2026-05-04 16:16 | 53.36464 | -5.53974 | 8030 ft | 314 kts | 193° |
| 2026-05-04 16:16 | 53.30122 | -5.56641 | 8019 ft | 313 kts | 207° |
| 2026-05-04 16:17 | 53.26471 | -5.60600 | 8024 ft | 313 kts | 215° |
| 2026-05-04 16:18 | 53.24699 | -5.69912 | 8026 ft | 310 kts | 299° |
| 2026-05-04 16:18 | 53.26046 | -5.72649 | 8028 ft | 310 kts | 317° |
| 2026-05-04 16:19 | 53.31169 | -5.79288 | 8031 ft | 311 kts | 320° |
| 2026-05-04 16:19 | 53.34360 | -5.84158 | 8034 ft | 310 kts | 315° |
| 2026-05-04 16:20 | 53.38856 | -5.91953 | 8033 ft | 310 kts | 313° |
| 2026-05-04 16:20 | 53.40503 | -5.98397 | 8035 ft | 310 kts | 269° |
| 2026-05-04 16:21 | 53.39965 | -6.09192 | 8039 ft | 310 kts | 265° |
| 2026-05-04 16:22 | 53.39554 | -6.16394 | 8037 ft | 310 kts | 265° |
| 2026-05-04 16:22 | 53.37591 | -6.26479 | 8039 ft | 313 kts | 229° |
| 2026-05-04 16:23 | 53.33171 | -6.34545 | 8039 ft | 313 kts | 228° |
| 2026-05-04 16:24 | 53.27009 | -6.44805 | 8037 ft | 315 kts | 219° |
| 2026-05-04 16:25 | 53.23575 | -6.49293 | 7267 ft | 311 kts | 218° |
| 2026-05-04 16:26 | 53.19514 | -6.61373 | 5634 ft | 301 kts | 250° |
| 2026-05-04 16:26 | 53.18804 | -6.71402 | 4399 ft | 295 kts | 282° |
| 2026-05-04 16:27 | 53.19545 | -6.78093 | 3578 ft | 292 kts | 282° |
| 2026-05-04 16:28 | 53.22174 | -6.86893 | 3436 ft | 288 kts | 313° |
| 2026-05-04 16:28 | 53.26904 | -6.92060 | 3426 ft | 284 kts | 7° |
| 2026-05-04 16:29 | 53.31975 | -6.83235 | 3421 ft | 259 kts | 53° |
| 2026-05-04 16:30 | 53.35162 | -6.75923 | 3425 ft | 262 kts | 52° |
| 2026-05-04 16:31 | 53.37317 | -6.70969 | 3424 ft | 263 kts | 53° |
| 2026-05-04 16:31 | 53.39304 | -6.62394 | 2886 ft | 262 kts | 63° |
| 2026-05-04 16:32 | 53.42117 | -6.54666 | 2718 ft | 259 kts | 57° |
| 2026-05-04 16:33 | 53.44281 | -6.49916 | 2599 ft | 260 kts | 59° |
| 2026-05-04 16:33 | 53.44621 | -6.44247 | 2121 ft | 224 kts | 92° |
| 2026-05-04 16:34 | 53.44381 | -6.40071 | 1509 ft | 143 kts | 95° |
| 2026-05-04 16:34 | 53.44286 | -6.38554 | 1439 ft | 122 kts | 92° |
| 2026-05-04 16:35 | 53.44054 | -6.34252 | 955 ft | 132 kts | 94° |
| 2026-05-04 16:35 | 53.43810 | -6.29689 | 423 ft | 138 kts | 97° |
| 2026-05-04 16:36 | 53.43729 | -6.28144 | 240 ft | 125 kts | 99° |
| 2026-05-04 16:36 | 53.43601 | -6.25947 | 225 ft | 61 kts | 95° |
| 2026-05-04 16:37 | 53.43441 | -6.25005 | 225 ft | 0 kts | 163° |
| 2026-05-04 16:37 | 53.43426 | -6.25003 | 225 ft | 5 kts | 180° |
| 2026-05-04 16:37 | 53.43392 | -6.25247 | 225 ft | 15 kts | 272° |
| 2026-05-04 16:38 | 53.43390 | -6.25655 | 226 ft | 14 kts | 208° |
| 2026-05-04 16:39 | 53.42960 | -6.25358 | 226 ft | 26 kts | 144° |
| 2026-05-04 16:39 | 53.42950 | -6.24971 | 225 ft | 21 kts | 97° |
| 2026-05-04 16:40 | 53.43001 | -6.24810 | 225 ft | 4 kts | 5° |
| 2026-05-04 16:40 | 53.43002 | -6.24810 | 225 ft | 0 kts | 5° |